Time;durP1;ratioP1;P1;durP2;ratioP2;P2;SDS_P1;SDS_P2;PMS_P1;PMS_P2;Temp;Humidity;BMP_temperature;BMP_pressure;BME280_temperature;BME280_humidity;BME280_pressure;Samples;Min_cycle;Max_cycle;Signal;HPM_P1;HPM_P2
2022/07/26 00:00:43;;;;;;;9.65;7.45;;;;;;;19.24;87.16699;95278.56;;;;
2022/07/26 00:01:44;;;;;;;9.450001;8.600001;;;;;;;19.27;88.69238;95261.57;;;;
2022/07/26 00:02:44;;;;;;;9.450001;8.600001;;;;;;;19.27;88.69238;95261.57;;;;
2022/07/26 00:03:45;;;;;;;9.450001;8.600001;;;;;;;19.27;88.69238;95261.57;;;;
2022/07/26 00:04:47;;;;;;;9.450001;8.600001;;;;;;;19.27;88.69238;95261.57;;;;
2022/07/26 00:05:47;;;;;;;9.450001;8.600001;;;;;;;19.27;88.69238;95261.57;;;;
2022/07/26 00:06:48;;;;;;;9.450001;8.600001;;;;;;;19.27;88.69238;95261.57;;;;
2022/07/26 00:07:48;;;;;;;9.450001;8.600001;;;;;;;19.27;88.69238;95261.57;;;;
2022/07/26 00:08:49;;;;;;;9.450001;8.600001;;;;;;;19.27;88.69238;95261.57;;;;
2022/07/26 00:09:50;;;;;;;9.450001;8.600001;;;;;;;19.27;88.69238;95261.57;;;;
2022/07/26 00:10:50;;;;;;;9.450001;8.600001;;;;;;;19.27;88.69238;95261.57;;;;
2022/07/26 00:11:51;;;;;;;9.450001;8.600001;;;;;;;19.27;88.69238;95261.57;;;;
2022/07/26 00:12:52;;;;;;;10.4;9.399999;;;;;;;19.31;89.54102;95252.47;;;;
2022/07/26 00:13:52;;;;;;;10.4;9.399999;;;;;;;19.31;89.54102;95252.47;;;;
2022/07/26 00:14:53;;;;;;;10.4;9.399999;;;;;;;19.31;89.54102;95252.47;;;;
2022/07/26 00:15:53;;;;;;;10.4;9.399999;;;;;;;19.31;89.54102;95252.47;;;;
2022/07/26 00:16:54;;;;;;;10.4;9.399999;;;;;;;19.31;89.54102;95252.47;;;;
2022/07/26 00:17:54;;;;;;;10.4;9.399999;;;;;;;19.31;89.54102;95252.47;;;;
2022/07/26 00:18:55;;;;;;;10.4;9.399999;;;;;;;19.31;89.54102;95252.47;;;;
2022/07/26 00:19:55;;;;;;;10.4;9.399999;;;;;;;19.31;89.54102;95252.47;;;;
2022/07/26 00:20:56;;;;;;;10.4;9.399999;;;;;;;19.31;89.54102;95252.47;;;;
2022/07/26 00:22:32;;;;;;;10.4;9.399999;;;;;;;19.31;89.54102;95252.47;;;;
2022/07/26 00:23:33;;;;;;;10.1;9.1;;;;;;;19.28;90.02734;95275.76;;;;
2022/07/26 00:24:34;;;;;;;10.1;9.1;;;;;;;19.28;90.02734;95275.76;;;;
2022/07/26 00:25:34;;;;;;;10.1;9.1;;;;;;;19.28;90.02734;95275.76;;;;
2022/07/26 00:26:35;;;;;;;10.1;9.1;;;;;;;19.28;90.02734;95275.76;;;;
2022/07/26 00:27:36;;;;;;;10.1;9.1;;;;;;;19.28;90.02734;95275.76;;;;
2022/07/26 00:28:37;;;;;;;10.1;9.1;;;;;;;19.28;90.02734;95275.76;;;;
2022/07/26 00:29:38;;;;;;;10.1;9.1;;;;;;;19.28;90.02734;95275.76;;;;
2022/07/26 00:30:38;;;;;;;10.1;9.1;;;;;;;19.28;90.02734;95275.76;;;;
2022/07/26 00:31:39;;;;;;;10.1;9.1;;;;;;;19.28;90.02734;95275.76;;;;
2022/07/26 00:32:39;;;;;;;10.1;9.1;;;;;;;19.28;90.02734;95275.76;;;;
2022/07/26 00:33:40;;;;;;;9.65;8.700001;;;;;;;19.26;90.66797;95246.54;;;;
2022/07/26 00:34:40;;;;;;;9.65;8.700001;;;;;;;19.26;90.66797;95246.54;;;;
2022/07/26 00:35:41;;;;;;;9.65;8.700001;;;;;;;19.26;90.66797;95246.54;;;;
2022/07/26 00:36:43;;;;;;;9.65;8.700001;;;;;;;19.26;90.66797;95246.54;;;;
2022/07/26 00:37:43;;;;;;;9.65;8.700001;;;;;;;19.26;90.66797;95246.54;;;;
2022/07/26 00:38:44;;;;;;;9.65;8.700001;;;;;;;19.26;90.66797;95246.54;;;;
2022/07/26 00:39:45;;;;;;;9.65;8.700001;;;;;;;19.26;90.66797;95246.54;;;;
2022/07/26 00:40:45;;;;;;;9.65;8.700001;;;;;;;19.26;90.66797;95246.54;;;;
2022/07/26 00:41:46;;;;;;;9.65;8.700001;;;;;;;19.26;90.66797;95246.54;;;;
2022/07/26 00:42:46;;;;;;;9.65;8.700001;;;;;;;19.26;90.66797;95246.54;;;;
2022/07/26 00:43:47;;;;;;;9.65;8.700001;;;;;;;19.26;90.66797;95246.54;;;;
2022/07/26 00:44:57;;;;;;;11.4;8.85;;;;;;;19.15;90.97266;95200.7;;;;
2022/07/26 00:45:58;;;;;;;11.4;8.85;;;;;;;19.15;90.97266;95200.7;;;;
2022/07/26 00:46:58;;;;;;;11.4;8.85;;;;;;;19.15;90.97266;95200.7;;;;
2022/07/26 00:47:59;;;;;;;11.4;8.85;;;;;;;19.15;90.97266;95200.7;;;;
2022/07/26 00:49:00;;;;;;;11.4;8.85;;;;;;;19.15;90.97266;95200.7;;;;
2022/07/26 00:50:01;;;;;;;11.4;8.85;;;;;;;19.15;90.97266;95200.7;;;;
2022/07/26 00:51:02;;;;;;;11.4;8.85;;;;;;;19.15;90.97266;95200.7;;;;
2022/07/26 00:52:03;;;;;;;11.4;8.85;;;;;;;19.15;90.97266;95200.7;;;;
2022/07/26 00:53:04;;;;;;;11.4;8.85;;;;;;;19.15;90.97266;95200.7;;;;
2022/07/26 00:54:05;;;;;;;11.4;8.85;;;;;;;19.15;90.97266;95200.7;;;;
2022/07/26 00:55:06;;;;;;;10.25;9.200001;;;;;;;19.12;91.63281;95188.24;;;;
2022/07/26 00:56:07;;;;;;;10.25;9.200001;;;;;;;19.12;91.63281;95188.24;;;;
2022/07/26 00:57:08;;;;;;;10.25;9.200001;;;;;;;19.12;91.63281;95188.24;;;;
2022/07/26 00:58:09;;;;;;;10.25;9.200001;;;;;;;19.12;91.63281;95188.24;;;;
2022/07/26 00:59:09;;;;;;;10.25;9.200001;;;;;;;19.12;91.63281;95188.24;;;;
2022/07/26 01:00:10;;;;;;;10.25;9.200001;;;;;;;19.12;91.63281;95188.24;;;;
2022/07/26 01:01:14;;;;;;;10.25;9.200001;;;;;;;19.12;91.63281;95188.24;;;;
2022/07/26 01:02:15;;;;;;;10.25;9.200001;;;;;;;19.12;91.63281;95188.24;;;;
2022/07/26 01:03:16;;;;;;;10.25;9.200001;;;;;;;19.12;91.63281;95188.24;;;;
2022/07/26 01:04:17;;;;;;;10.25;9.200001;;;;;;;19.12;91.63281;95188.24;;;;
2022/07/26 01:05:18;;;;;;;10.25;9.200001;;;;;;;19.12;91.63281;95188.24;;;;
2022/07/26 01:06:18;;;;;;;9.6;8.699999;;;;;;;19.05;91.95703;95175.63;;;;
2022/07/26 01:07:21;;;;;;;9.6;8.699999;;;;;;;19.05;91.95703;95175.63;;;;
2022/07/26 01:08:22;;;;;;;9.6;8.699999;;;;;;;19.05;91.95703;95175.63;;;;
2022/07/26 01:09:22;;;;;;;9.6;8.699999;;;;;;;19.05;91.95703;95175.63;;;;
2022/07/26 01:10:23;;;;;;;9.6;8.699999;;;;;;;19.05;91.95703;95175.63;;;;
2022/07/26 01:11:24;;;;;;;9.6;8.699999;;;;;;;19.05;91.95703;95175.63;;;;
2022/07/26 01:12:26;;;;;;;9.6;8.699999;;;;;;;19.05;91.95703;95175.63;;;;
2022/07/26 01:13:26;;;;;;;9.6;8.699999;;;;;;;19.05;91.95703;95175.63;;;;
2022/07/26 01:14:27;;;;;;;9.6;8.699999;;;;;;;19.05;91.95703;95175.63;;;;
2022/07/26 01:15:28;;;;;;;9.6;8.699999;;;;;;;19.05;91.95703;95175.63;;;;
2022/07/26 01:16:28;;;;;;;9.299999;8.400001;;;;;;;19.02;92.4209;95181.13;;;;
2022/07/26 01:17:29;;;;;;;9.299999;8.400001;;;;;;;19.02;92.4209;95181.13;;;;
2022/07/26 01:18:29;;;;;;;9.299999;8.400001;;;;;;;19.02;92.4209;95181.13;;;;
2022/07/26 01:19:30;;;;;;;9.299999;8.400001;;;;;;;19.02;92.4209;95181.13;;;;
2022/07/26 01:20:30;;;;;;;9.299999;8.400001;;;;;;;19.02;92.4209;95181.13;;;;
2022/07/26 01:21:31;;;;;;;9.299999;8.400001;;;;;;;19.02;92.4209;95181.13;;;;
2022/07/26 01:22:32;;;;;;;9.299999;8.400001;;;;;;;19.02;92.4209;95181.13;;;;
2022/07/26 01:23:33;;;;;;;9.299999;8.400001;;;;;;;19.02;92.4209;95181.13;;;;
2022/07/26 01:24:34;;;;;;;9.299999;8.400001;;;;;;;19.02;92.4209;95181.13;;;;
2022/07/26 01:25:34;;;;;;;9.299999;8.400001;;;;;;;19.02;92.4209;95181.13;;;;
2022/07/26 01:26:36;;;;;;;9.299999;8.400001;;;;;;;19.02;92.4209;95181.13;;;;
2022/07/26 01:27:38;;;;;;;8.549999;7.1;;;;;;;18.89;92.65332;95191.54;;;;
2022/07/26 01:28:38;;;;;;;8.549999;7.1;;;;;;;18.89;92.65332;95191.54;;;;
2022/07/26 01:29:40;;;;;;;8.549999;7.1;;;;;;;18.89;92.65332;95191.54;;;;
2022/07/26 01:30:40;;;;;;;8.549999;7.1;;;;;;;18.89;92.65332;95191.54;;;;
2022/07/26 01:31:41;;;;;;;8.549999;7.1;;;;;;;18.89;92.65332;95191.54;;;;
2022/07/26 01:32:41;;;;;;;8.549999;7.1;;;;;;;18.89;92.65332;95191.54;;;;
2022/07/26 01:33:42;;;;;;;8.549999;7.1;;;;;;;18.89;92.65332;95191.54;;;;
2022/07/26 01:34:42;;;;;;;8.549999;7.1;;;;;;;18.89;92.65332;95191.54;;;;
2022/07/26 01:35:43;;;;;;;8.549999;7.1;;;;;;;18.89;92.65332;95191.54;;;;
2022/07/26 01:36:44;;;;;;;8.549999;7.1;;;;;;;18.89;92.65332;95191.54;;;;
2022/07/26 01:37:44;;;;;;;7.45;6.75;;;;;;;18.87;93.17285;95187.79;;;;
2022/07/26 01:38:45;;;;;;;7.45;6.75;;;;;;;18.87;93.17285;95187.79;;;;
2022/07/26 01:39:46;;;;;;;7.45;6.75;;;;;;;18.87;93.17285;95187.79;;;;
2022/07/26 01:40:46;;;;;;;7.45;6.75;;;;;;;18.87;93.17285;95187.79;;;;
2022/07/26 01:41:47;;;;;;;7.45;6.75;;;;;;;18.87;93.17285;95187.79;;;;
2022/07/26 01:42:47;;;;;;;7.45;6.75;;;;;;;18.87;93.17285;95187.79;;;;
2022/07/26 01:43:48;;;;;;;7.45;6.75;;;;;;;18.87;93.17285;95187.79;;;;
2022/07/26 01:44:48;;;;;;;7.45;6.75;;;;;;;18.87;93.17285;95187.79;;;;
2022/07/26 01:45:49;;;;;;;7.45;6.75;;;;;;;18.87;93.17285;95187.79;;;;
2022/07/26 01:46:50;;;;;;;7.45;6.75;;;;;;;18.87;93.17285;95187.79;;;;
2022/07/26 01:47:50;;;;;;;7.45;6.75;;;;;;;18.87;93.17285;95187.79;;;;
2022/07/26 01:48:51;;;;;;;7.9;6.550001;;;;;;;18.81;93.33594;95191.94;;;;
2022/07/26 01:49:51;;;;;;;7.9;6.550001;;;;;;;18.81;93.33594;95191.94;;;;
2022/07/26 01:50:52;;;;;;;7.9;6.550001;;;;;;;18.81;93.33594;95191.94;;;;
2022/07/26 01:51:53;;;;;;;7.9;6.550001;;;;;;;18.81;93.33594;95191.94;;;;
2022/07/26 01:52:53;;;;;;;7.9;6.550001;;;;;;;18.81;93.33594;95191.94;;;;
2022/07/26 01:53:54;;;;;;;7.9;6.550001;;;;;;;18.81;93.33594;95191.94;;;;
2022/07/26 01:54:54;;;;;;;7.9;6.550001;;;;;;;18.81;93.33594;95191.94;;;;
2022/07/26 01:55:55;;;;;;;7.9;6.550001;;;;;;;18.81;93.33594;95191.94;;;;
2022/07/26 01:56:55;;;;;;;7.9;6.550001;;;;;;;18.81;93.33594;95191.94;;;;
2022/07/26 01:57:56;;;;;;;7.9;6.550001;;;;;;;18.81;93.33594;95191.94;;;;
2022/07/26 01:58:56;;;;;;;7.9;6.550001;;;;;;;18.81;93.33594;95191.94;;;;
2022/07/26 01:59:57;;;;;;;7.9;6.550001;;;;;;;18.81;93.33594;95191.94;;;;
2022/07/26 02:00:57;;;;;;;7.9;6.550001;;;;;;;18.81;93.33594;95191.94;;;;
2022/07/26 02:01:58;;;;;;;7.9;6.550001;;;;;;;18.81;93.33594;95191.94;;;;
2022/07/26 02:02:58;;;;;;;7.9;6.550001;;;;;;;18.81;93.33594;95191.94;;;;
2022/07/26 02:03:59;;;;;;;7.9;6.550001;;;;;;;18.81;93.33594;95191.94;;;;
2022/07/26 02:05:00;;;;;;;7.9;6.550001;;;;;;;18.81;93.33594;95191.94;;;;
2022/07/26 02:06:01;;;;;;;7.9;6.550001;;;;;;;18.81;93.33594;95191.94;;;;
2022/07/26 02:07:04;;;;;;;7.9;6.550001;;;;;;;18.81;93.33594;95191.94;;;;
2022/07/26 02:08:04;;;;;;;7.9;6.550001;;;;;;;18.81;93.33594;95191.94;;;;
2022/07/26 02:09:05;;;;;;;7.9;6.550001;;;;;;;18.81;93.33594;95191.94;;;;
2022/07/26 02:10:05;;;;;;;7.6;6.8;;;;;;;18.78;93.89648;95174.66;;;;
2022/07/26 02:11:07;;;;;;;7.6;6.8;;;;;;;18.78;93.89648;95174.66;;;;
2022/07/26 02:12:08;;;;;;;7.6;6.8;;;;;;;18.78;93.89648;95174.66;;;;
2022/07/26 02:13:09;;;;;;;7.6;6.8;;;;;;;18.78;93.89648;95174.66;;;;
2022/07/26 02:14:09;;;;;;;7.6;6.8;;;;;;;18.78;93.89648;95174.66;;;;
2022/07/26 02:15:10;;;;;;;7.6;6.8;;;;;;;18.78;93.89648;95174.66;;;;
2022/07/26 02:16:12;;;;;;;7.6;6.8;;;;;;;18.78;93.89648;95174.66;;;;
2022/07/26 02:17:14;;;;;;;7.6;6.8;;;;;;;18.78;93.89648;95174.66;;;;
2022/07/26 02:18:14;;;;;;;7.6;6.8;;;;;;;18.78;93.89648;95174.66;;;;
2022/07/26 02:19:15;;;;;;;7.6;6.8;;;;;;;18.78;93.89648;95174.66;;;;
2022/07/26 02:20:15;;;;;;;7.449999;6.799999;;;;;;;18.77;94.30859;95170.39;;;;
2022/07/26 02:21:16;;;;;;;7.449999;6.799999;;;;;;;18.77;94.30859;95170.39;;;;
2022/07/26 02:22:17;;;;;;;7.449999;6.799999;;;;;;;18.77;94.30859;95170.39;;;;
2022/07/26 02:23:18;;;;;;;7.449999;6.799999;;;;;;;18.77;94.30859;95170.39;;;;
2022/07/26 02:24:19;;;;;;;7.449999;6.799999;;;;;;;18.77;94.30859;95170.39;;;;
2022/07/26 02:25:19;;;;;;;7.449999;6.799999;;;;;;;18.77;94.30859;95170.39;;;;
2022/07/26 02:26:20;;;;;;;7.449999;6.799999;;;;;;;18.77;94.30859;95170.39;;;;
2022/07/26 02:27:20;;;;;;;7.449999;6.799999;;;;;;;18.77;94.30859;95170.39;;;;
2022/07/26 02:28:21;;;;;;;7.449999;6.799999;;;;;;;18.77;94.30859;95170.39;;;;
2022/07/26 02:29:22;;;;;;;7.449999;6.799999;;;;;;;18.77;94.30859;95170.39;;;;
2022/07/26 02:30:23;;;;;;;7.449999;6.799999;;;;;;;18.77;94.30859;95170.39;;;;
2022/07/26 02:31:24;;;;;;;9.35;7.45;;;;;;;18.77;94.4502;95196.77;;;;
2022/07/26 02:32:24;;;;;;;9.35;7.45;;;;;;;18.77;94.4502;95196.77;;;;
2022/07/26 02:33:25;;;;;;;9.35;7.45;;;;;;;18.77;94.4502;95196.77;;;;
2022/07/26 02:34:25;;;;;;;9.35;7.45;;;;;;;18.77;94.4502;95196.77;;;;
2022/07/26 02:35:26;;;;;;;9.35;7.45;;;;;;;18.77;94.4502;95196.77;;;;
2022/07/26 02:36:26;;;;;;;9.35;7.45;;;;;;;18.77;94.4502;95196.77;;;;
2022/07/26 02:37:27;;;;;;;9.35;7.45;;;;;;;18.77;94.4502;95196.77;;;;
2022/07/26 02:38:27;;;;;;;9.35;7.45;;;;;;;18.77;94.4502;95196.77;;;;
2022/07/26 02:39:28;;;;;;;9.35;7.45;;;;;;;18.77;94.4502;95196.77;;;;
2022/07/26 02:40:29;;;;;;;9.35;7.45;;;;;;;18.77;94.4502;95196.77;;;;
2022/07/26 02:41:30;;;;;;;7.749999;7.050001;;;;;;;18.81;94.76172;95190.72;;;;
2022/07/26 02:42:30;;;;;;;7.749999;7.050001;;;;;;;18.81;94.76172;95190.72;;;;
2022/07/26 02:43:31;;;;;;;7.749999;7.050001;;;;;;;18.81;94.76172;95190.72;;;;
2022/07/26 02:44:33;;;;;;;7.749999;7.050001;;;;;;;18.81;94.76172;95190.72;;;;
2022/07/26 02:45:34;;;;;;;7.749999;7.050001;;;;;;;18.81;94.76172;95190.72;;;;
2022/07/26 02:46:34;;;;;;;7.749999;7.050001;;;;;;;18.81;94.76172;95190.72;;;;
2022/07/26 02:47:35;;;;;;;7.749999;7.050001;;;;;;;18.81;94.76172;95190.72;;;;
2022/07/26 02:48:44;;;;;;;7.749999;7.050001;;;;;;;18.81;94.76172;95190.72;;;;
2022/07/26 02:49:45;;;;;;;7.749999;7.050001;;;;;;;18.81;94.76172;95190.72;;;;
2022/07/26 02:50:45;;;;;;;7.749999;7.050001;;;;;;;18.81;94.76172;95190.72;;;;
2022/07/26 02:51:46;;;;;;;7.749999;7.050001;;;;;;;18.81;94.76172;95190.72;;;;
2022/07/26 02:52:47;;;;;;;6.9;6.2;;;;;;;18.77;94.85352;95207.48;;;;
2022/07/26 02:53:48;;;;;;;6.9;6.2;;;;;;;18.77;94.85352;95207.48;;;;
2022/07/26 02:54:48;;;;;;;6.9;6.2;;;;;;;18.77;94.85352;95207.48;;;;
2022/07/26 02:55:49;;;;;;;6.9;6.2;;;;;;;18.77;94.85352;95207.48;;;;
2022/07/26 02:56:49;;;;;;;6.9;6.2;;;;;;;18.77;94.85352;95207.48;;;;
2022/07/26 02:57:50;;;;;;;6.9;6.2;;;;;;;18.77;94.85352;95207.48;;;;
2022/07/26 02:58:51;;;;;;;6.9;6.2;;;;;;;18.77;94.85352;95207.48;;;;
2022/07/26 02:59:51;;;;;;;6.9;6.2;;;;;;;18.77;94.85352;95207.48;;;;
2022/07/26 03:00:52;;;;;;;6.9;6.2;;;;;;;18.77;94.85352;95207.48;;;;
2022/07/26 03:01:52;;;;;;;6.9;6.2;;;;;;;18.77;94.85352;95207.48;;;;
2022/07/26 03:02:53;;;;;;;7.05;6.35;;;;;;;18.77;95.10449;95189.14;;;;
2022/07/26 03:03:53;;;;;;;7.05;6.35;;;;;;;18.77;95.10449;95189.14;;;;
2022/07/26 03:04:54;;;;;;;7.05;6.35;;;;;;;18.77;95.10449;95189.14;;;;
2022/07/26 03:05:54;;;;;;;7.05;6.35;;;;;;;18.77;95.10449;95189.14;;;;
2022/07/26 03:06:55;;;;;;;7.05;6.35;;;;;;;18.77;95.10449;95189.14;;;;
2022/07/26 03:07:55;;;;;;;7.05;6.35;;;;;;;18.77;95.10449;95189.14;;;;
2022/07/26 03:08:56;;;;;;;7.05;6.35;;;;;;;18.77;95.10449;95189.14;;;;
2022/07/26 03:09:57;;;;;;;7.05;6.35;;;;;;;18.77;95.10449;95189.14;;;;
2022/07/26 03:10:58;;;;;;;7.05;6.35;;;;;;;18.77;95.10449;95189.14;;;;
2022/07/26 03:11:59;;;;;;;7.05;6.35;;;;;;;18.77;95.10449;95189.14;;;;
2022/07/26 03:12:59;;;;;;;7.05;6.35;;;;;;;18.77;95.10449;95189.14;;;;
2022/07/26 03:14:00;;;;;;;7.1;6.4;;;;;;;18.7;95.16699;95183.62;;;;
2022/07/26 03:15:00;;;;;;;7.1;6.4;;;;;;;18.7;95.16699;95183.62;;;;
2022/07/26 03:16:01;;;;;;;7.1;6.4;;;;;;;18.7;95.16699;95183.62;;;;
2022/07/26 03:17:01;;;;;;;7.1;6.4;;;;;;;18.7;95.16699;95183.62;;;;
2022/07/26 03:18:03;;;;;;;7.1;6.4;;;;;;;18.7;95.16699;95183.62;;;;
2022/07/26 03:19:03;;;;;;;7.1;6.4;;;;;;;18.7;95.16699;95183.62;;;;
2022/07/26 03:20:04;;;;;;;7.1;6.4;;;;;;;18.7;95.16699;95183.62;;;;
2022/07/26 03:21:06;;;;;;;7.1;6.4;;;;;;;18.7;95.16699;95183.62;;;;
2022/07/26 03:22:06;;;;;;;7.1;6.4;;;;;;;18.7;95.16699;95183.62;;;;
2022/07/26 03:23:07;;;;;;;7.1;6.4;;;;;;;18.7;95.16699;95183.62;;;;
2022/07/26 03:24:08;;;;;;;7.15;6.349999;;;;;;;18.7;95.48242;95194.33;;;;
2022/07/26 03:25:08;;;;;;;7.15;6.349999;;;;;;;18.7;95.48242;95194.33;;;;
2022/07/26 03:26:09;;;;;;;7.15;6.349999;;;;;;;18.7;95.48242;95194.33;;;;
2022/07/26 03:27:09;;;;;;;7.15;6.349999;;;;;;;18.7;95.48242;95194.33;;;;
2022/07/26 03:28:10;;;;;;;7.15;6.349999;;;;;;;18.7;95.48242;95194.33;;;;
2022/07/26 03:29:10;;;;;;;7.15;6.349999;;;;;;;18.7;95.48242;95194.33;;;;
2022/07/26 03:30:10;;;;;;;7.15;6.349999;;;;;;;18.7;95.48242;95194.33;;;;
2022/07/26 03:31:12;;;;;;;7.15;6.349999;;;;;;;18.7;95.48242;95194.33;;;;
2022/07/26 03:32:13;;;;;;;7.15;6.349999;;;;;;;18.7;95.48242;95194.33;;;;
2022/07/26 03:33:13;;;;;;;7.15;6.349999;;;;;;;18.7;95.48242;95194.33;;;;
2022/07/26 03:34:14;;;;;;;7.15;6.349999;;;;;;;18.7;95.48242;95194.33;;;;
2022/07/26 03:35:14;;;;;;;7.550001;6.6;;;;;;;18.66;95.53809;95193.39;;;;
2022/07/26 03:36:15;;;;;;;7.550001;6.6;;;;;;;18.66;95.53809;95193.39;;;;
2022/07/26 03:37:15;;;;;;;7.550001;6.6;;;;;;;18.66;95.53809;95193.39;;;;
2022/07/26 03:38:16;;;;;;;7.550001;6.6;;;;;;;18.66;95.53809;95193.39;;;;
2022/07/26 03:39:17;;;;;;;7.550001;6.6;;;;;;;18.66;95.53809;95193.39;;;;
2022/07/26 03:40:17;;;;;;;7.550001;6.6;;;;;;;18.66;95.53809;95193.39;;;;
2022/07/26 03:41:19;;;;;;;7.550001;6.6;;;;;;;18.66;95.53809;95193.39;;;;
2022/07/26 03:42:19;;;;;;;7.550001;6.6;;;;;;;18.66;95.53809;95193.39;;;;
2022/07/26 03:43:19;;;;;;;7.550001;6.6;;;;;;;18.66;95.53809;95193.39;;;;
2022/07/26 03:44:20;;;;;;;7.550001;6.6;;;;;;;18.66;95.53809;95193.39;;;;
2022/07/26 03:45:20;;;;;;;7.550001;6.6;;;;;;;18.66;95.53809;95193.39;;;;
2022/07/26 03:46:21;;;;;;;7.300001;6.6;;;;;;;18.69;95.85742;95191.52;;;;
2022/07/26 03:47:22;;;;;;;7.300001;6.6;;;;;;;18.69;95.85742;95191.52;;;;
2022/07/26 03:48:22;;;;;;;7.300001;6.6;;;;;;;18.69;95.85742;95191.52;;;;
2022/07/26 03:49:23;;;;;;;7.300001;6.6;;;;;;;18.69;95.85742;95191.52;;;;
2022/07/26 03:50:23;;;;;;;7.300001;6.6;;;;;;;18.69;95.85742;95191.52;;;;
2022/07/26 03:51:24;;;;;;;7.300001;6.6;;;;;;;18.69;95.85742;95191.52;;;;
2022/07/26 03:52:24;;;;;;;7.300001;6.6;;;;;;;18.69;95.85742;95191.52;;;;
2022/07/26 03:53:25;;;;;;;7.300001;6.6;;;;;;;18.69;95.85742;95191.52;;;;
2022/07/26 03:54:25;;;;;;;7.300001;6.6;;;;;;;18.69;95.85742;95191.52;;;;
2022/07/26 03:56:31;;;;;;;7.300001;6.6;;;;;;;18.69;95.85742;95191.52;;;;
2022/07/26 03:57:31;;;;;;;7.799999;7.000001;;;;;;;18.69;95.90137;95176.78;;;;
2022/07/26 03:58:32;;;;;;;7.799999;7.000001;;;;;;;18.69;95.90137;95176.78;;;;
2022/07/26 03:59:32;;;;;;;7.799999;7.000001;;;;;;;18.69;95.90137;95176.78;;;;
2022/07/26 04:00:33;;;;;;;7.799999;7.000001;;;;;;;18.69;95.90137;95176.78;;;;
2022/07/26 04:01:33;;;;;;;7.799999;7.000001;;;;;;;18.69;95.90137;95176.78;;;;
2022/07/26 04:02:35;;;;;;;7.799999;7.000001;;;;;;;18.69;95.90137;95176.78;;;;
2022/07/26 04:03:35;;;;;;;7.799999;7.000001;;;;;;;18.69;95.90137;95176.78;;;;
2022/07/26 04:04:36;;;;;;;7.799999;7.000001;;;;;;;18.69;95.90137;95176.78;;;;
2022/07/26 04:05:36;;;;;;;7.799999;7.000001;;;;;;;18.69;95.90137;95176.78;;;;
2022/07/26 04:06:37;;;;;;;7.799999;7.000001;;;;;;;18.69;95.90137;95176.78;;;;
2022/07/26 04:07:38;;;;;;;9.100002;7.55;;;;;;;18.74;96.12012;95186.17;;;;
2022/07/26 04:08:41;;;;;;;9.100002;7.55;;;;;;;18.74;96.12012;95186.17;;;;
2022/07/26 04:09:41;;;;;;;9.100002;7.55;;;;;;;18.74;96.12012;95186.17;;;;
2022/07/26 04:10:42;;;;;;;9.100002;7.55;;;;;;;18.74;96.12012;95186.17;;;;
2022/07/26 04:11:44;;;;;;;9.100002;7.55;;;;;;;18.74;96.12012;95186.17;;;;
2022/07/26 04:12:45;;;;;;;9.100002;7.55;;;;;;;18.74;96.12012;95186.17;;;;
2022/07/26 04:13:45;;;;;;;9.100002;7.55;;;;;;;18.74;96.12012;95186.17;;;;
2022/07/26 04:14:46;;;;;;;9.100002;7.55;;;;;;;18.74;96.12012;95186.17;;;;
2022/07/26 04:15:46;;;;;;;9.100002;7.55;;;;;;;18.74;96.12012;95186.17;;;;
2022/07/26 04:16:46;;;;;;;9.100002;7.55;;;;;;;18.74;96.12012;95186.17;;;;
2022/07/26 04:17:47;;;;;;;10.25;7.849999;;;;;;;18.74;96.12207;95195.4;;;;
2022/07/26 04:18:48;;;;;;;10.25;7.849999;;;;;;;18.74;96.12207;95195.4;;;;
2022/07/26 04:19:48;;;;;;;10.25;7.849999;;;;;;;18.74;96.12207;95195.4;;;;
2022/07/26 04:20:48;;;;;;;10.25;7.849999;;;;;;;18.74;96.12207;95195.4;;;;
2022/07/26 04:21:49;;;;;;;10.25;7.849999;;;;;;;18.74;96.12207;95195.4;;;;
2022/07/26 04:22:50;;;;;;;10.25;7.849999;;;;;;;18.74;96.12207;95195.4;;;;
2022/07/26 04:23:50;;;;;;;10.25;7.849999;;;;;;;18.74;96.12207;95195.4;;;;
2022/07/26 04:24:51;;;;;;;10.25;7.849999;;;;;;;18.74;96.12207;95195.4;;;;
2022/07/26 04:25:51;;;;;;;10.25;7.849999;;;;;;;18.74;96.12207;95195.4;;;;
2022/07/26 04:26:52;;;;;;;10.25;7.849999;;;;;;;18.74;96.12207;95195.4;;;;
2022/07/26 04:27:52;;;;;;;10.25;7.849999;;;;;;;18.74;96.12207;95195.4;;;;
2022/07/26 04:28:53;;;;;;;8.649999;7.45;;;;;;;18.83;96.3125;95203.33;;;;
2022/07/26 04:29:53;;;;;;;8.649999;7.45;;;;;;;18.83;96.3125;95203.33;;;;
2022/07/26 04:30:54;;;;;;;8.649999;7.45;;;;;;;18.83;96.3125;95203.33;;;;
2022/07/26 04:31:54;;;;;;;8.649999;7.45;;;;;;;18.83;96.3125;95203.33;;;;
2022/07/26 04:32:55;;;;;;;8.649999;7.45;;;;;;;18.83;96.3125;95203.33;;;;
2022/07/26 04:33:55;;;;;;;8.649999;7.45;;;;;;;18.83;96.3125;95203.33;;;;
2022/07/26 04:34:56;;;;;;;8.649999;7.45;;;;;;;18.83;96.3125;95203.33;;;;
2022/07/26 04:35:56;;;;;;;8.649999;7.45;;;;;;;18.83;96.3125;95203.33;;;;
2022/07/26 04:36:57;;;;;;;8.649999;7.45;;;;;;;18.83;96.3125;95203.33;;;;
2022/07/26 04:37:57;;;;;;;8.649999;7.45;;;;;;;18.83;96.3125;95203.33;;;;
2022/07/26 04:38:58;;;;;;;9.299999;7.300001;;;;;;;18.9;96.20898;95213.26;;;;
2022/07/26 04:39:58;;;;;;;9.299999;7.300001;;;;;;;18.9;96.20898;95213.26;;;;
2022/07/26 04:40:59;;;;;;;9.299999;7.300001;;;;;;;18.9;96.20898;95213.26;;;;
2022/07/26 04:41:59;;;;;;;9.299999;7.300001;;;;;;;18.9;96.20898;95213.26;;;;
2022/07/26 04:43:00;;;;;;;9.299999;7.300001;;;;;;;18.9;96.20898;95213.26;;;;
2022/07/26 04:44:01;;;;;;;9.299999;7.300001;;;;;;;18.9;96.20898;95213.26;;;;
2022/07/26 04:45:02;;;;;;;9.299999;7.300001;;;;;;;18.9;96.20898;95213.26;;;;
2022/07/26 04:46:03;;;;;;;9.299999;7.300001;;;;;;;18.9;96.20898;95213.26;;;;
2022/07/26 04:47:04;;;;;;;9.299999;7.300001;;;;;;;18.9;96.20898;95213.26;;;;
2022/07/26 04:48:05;;;;;;;9.299999;7.300001;;;;;;;18.9;96.20898;95213.26;;;;
2022/07/26 04:49:06;;;;;;;9.299999;7.300001;;;;;;;18.9;96.20898;95213.26;;;;
2022/07/26 04:50:06;;;;;;;9.699999;7.6;;;;;;;19.02;96.33496;95220.39;;;;
2022/07/26 04:51:08;;;;;;;9.699999;7.6;;;;;;;19.02;96.33496;95220.39;;;;
2022/07/26 04:52:09;;;;;;;9.699999;7.6;;;;;;;19.02;96.33496;95220.39;;;;
2022/07/26 04:53:09;;;;;;;9.699999;7.6;;;;;;;19.02;96.33496;95220.39;;;;
2022/07/26 04:54:10;;;;;;;9.699999;7.6;;;;;;;19.02;96.33496;95220.39;;;;
2022/07/26 04:55:10;;;;;;;9.699999;7.6;;;;;;;19.02;96.33496;95220.39;;;;
2022/07/26 04:56:11;;;;;;;9.699999;7.6;;;;;;;19.02;96.33496;95220.39;;;;
2022/07/26 04:57:12;;;;;;;9.699999;7.6;;;;;;;19.02;96.33496;95220.39;;;;
2022/07/26 04:58:12;;;;;;;9.699999;7.6;;;;;;;19.02;96.33496;95220.39;;;;
2022/07/26 04:59:13;;;;;;;9.699999;7.6;;;;;;;19.02;96.33496;95220.39;;;;
2022/07/26 05:00:13;;;;;;;8.649999;7.35;;;;;;;19.07;96.18164;95221.73;;;;
2022/07/26 05:01:16;;;;;;;8.649999;7.35;;;;;;;19.07;96.18164;95221.73;;;;
2022/07/26 05:02:17;;;;;;;8.649999;7.35;;;;;;;19.07;96.18164;95221.73;;;;
2022/07/26 05:03:18;;;;;;;8.649999;7.35;;;;;;;19.07;96.18164;95221.73;;;;
2022/07/26 05:04:18;;;;;;;8.649999;7.35;;;;;;;19.07;96.18164;95221.73;;;;
2022/07/26 05:05:19;;;;;;;8.649999;7.35;;;;;;;19.07;96.18164;95221.73;;;;
2022/07/26 05:06:20;;;;;;;8.649999;7.35;;;;;;;19.07;96.18164;95221.73;;;;
2022/07/26 05:07:21;;;;;;;8.649999;7.35;;;;;;;19.07;96.18164;95221.73;;;;
2022/07/26 05:08:21;;;;;;;8.649999;7.35;;;;;;;19.07;96.18164;95221.73;;;;
2022/07/26 05:09:22;;;;;;;8.649999;7.35;;;;;;;19.07;96.18164;95221.73;;;;
2022/07/26 05:10:22;;;;;;;8.649999;7.35;;;;;;;19.07;96.18164;95221.73;;;;
2022/07/26 05:11:28;;;;;;;7.55;6.55;;;;;;;19.22;96.4082;95225.9;;;;
2022/07/26 05:12:29;;;;;;;7.55;6.55;;;;;;;19.22;96.4082;95225.9;;;;
2022/07/26 05:13:30;;;;;;;7.55;6.55;;;;;;;19.22;96.4082;95225.9;;;;
2022/07/26 05:14:30;;;;;;;7.55;6.55;;;;;;;19.22;96.4082;95225.9;;;;
2022/07/26 05:15:31;;;;;;;7.55;6.55;;;;;;;19.22;96.4082;95225.9;;;;
2022/07/26 05:16:32;;;;;;;7.55;6.55;;;;;;;19.22;96.4082;95225.9;;;;
2022/07/26 05:17:33;;;;;;;7.55;6.55;;;;;;;19.22;96.4082;95225.9;;;;
2022/07/26 05:18:36;;;;;;;7.55;6.55;;;;;;;19.22;96.4082;95225.9;;;;
2022/07/26 05:19:36;;;;;;;7.55;6.55;;;;;;;19.22;96.4082;95225.9;;;;
2022/07/26 05:20:37;;;;;;;7.55;6.55;;;;;;;19.22;96.4082;95225.9;;;;
2022/07/26 05:21:38;;;;;;;7.150001;6.05;;;;;;;19.23;96.21582;95226.56;;;;
2022/07/26 05:22:38;;;;;;;7.150001;6.05;;;;;;;19.23;96.21582;95226.56;;;;
2022/07/26 05:23:39;;;;;;;7.150001;6.05;;;;;;;19.23;96.21582;95226.56;;;;
2022/07/26 05:24:40;;;;;;;7.150001;6.05;;;;;;;19.23;96.21582;95226.56;;;;
2022/07/26 05:25:40;;;;;;;7.150001;6.05;;;;;;;19.23;96.21582;95226.56;;;;
2022/07/26 05:26:41;;;;;;;7.150001;6.05;;;;;;;19.23;96.21582;95226.56;;;;
2022/07/26 05:27:42;;;;;;;7.150001;6.05;;;;;;;19.23;96.21582;95226.56;;;;
2022/07/26 05:28:43;;;;;;;7.150001;6.05;;;;;;;19.23;96.21582;95226.56;;;;
2022/07/26 05:29:44;;;;;;;7.150001;6.05;;;;;;;19.23;96.21582;95226.56;;;;
2022/07/26 05:30:44;;;;;;;7.150001;6.05;;;;;;;19.23;96.21582;95226.56;;;;
2022/07/26 05:31:45;;;;;;;7.150001;6.05;;;;;;;19.23;96.21582;95226.56;;;;